Terminal Aerodrome Forecast
Issued by NWS

Home | Current Version | Previous Version | Text Only | Print | Product List | Glossary On
Versions: 1 2 3 4 5 6 7 8 9 10 11 12 13 14 15
000
FTUS43 KUNR 292320
TAFGCC
TAF
KGCC 292320Z 3000/3024 35005KT P6SM SCT250
     FM300300 18005KT P6SM SCT250
     FM300700 20006KT P6SM SCT130 BKN250=

USA.gov is the U.S. government's official web portal to all federal, state and local government web resources and services.